createdAt,value
2017-05-27T00:01:54.587Z,11.70
2017-05-27T00:04:21.996Z,11.70
2017-05-27T00:06:49.176Z,11.70
2017-05-27T00:09:16.337Z,11.70
2017-05-27T00:11:43.502Z,11.60
2017-05-27T00:14:10.681Z,11.70
2017-05-27T00:16:37.843Z,11.60
2017-05-27T00:19:05.389Z,11.60
2017-05-27T00:21:32.527Z,11.60
2017-05-27T00:24:14.597Z,11.50
2017-05-27T00:26:41.764Z,11.50
2017-05-27T00:29:09.576Z,11.50
2017-05-27T00:31:36.741Z,11.40
2017-05-27T00:34:03.915Z,11.40
2017-05-27T00:36:31.069Z,11.40
2017-05-27T00:38:58.617Z,11.40
2017-05-27T00:41:26.841Z,11.40
2017-05-27T00:43:54.075Z,11.40
2017-05-27T00:46:21.245Z,11.40
2017-05-27T00:48:48.412Z,11.40
2017-05-27T00:51:15.694Z,11.40
2017-05-27T00:53:42.871Z,11.40
2017-05-27T00:56:10.015Z,11.40
2017-05-27T00:58:37.211Z,11.40
2017-05-27T01:01:05.015Z,11.30
2017-05-27T01:03:32.169Z,11.30
2017-05-27T01:05:59.337Z,11.30
2017-05-27T01:08:26.509Z,11.20
2017-05-27T01:10:53.763Z,11.20
2017-05-27T01:13:21.008Z,11.20
2017-05-27T01:15:48.335Z,11.20
2017-05-27T01:18:15.527Z,11.10
2017-05-27T01:20:42.723Z,11.10
2017-05-27T01:23:09.883Z,11.10
2017-05-27T01:25:37.067Z,11.10
2017-05-27T01:28:04.298Z,11.10
2017-05-27T01:30:31.528Z,11.10
2017-05-27T01:32:58.744Z,11.00
2017-05-27T01:35:25.951Z,11.00
2017-05-27T01:37:53.149Z,11.00
2017-05-27T01:40:20.776Z,10.90
2017-05-27T01:42:47.999Z,10.90
2017-05-27T01:45:15.205Z,10.90
2017-05-27T01:47:42.408Z,10.90
2017-05-27T01:50:09.603Z,10.80
2017-05-27T01:52:36.778Z,10.80
2017-05-27T01:55:03.940Z,10.80
2017-05-27T01:57:31.668Z,10.80
2017-05-27T01:59:58.855Z,10.70
2017-05-27T02:02:26.021Z,10.70
2017-05-27T02:04:53.181Z,10.70
2017-05-27T02:07:20.361Z,10.70
2017-05-27T02:09:47.661Z,10.70
2017-05-27T02:12:14.905Z,10.60
2017-05-27T02:14:42.199Z,10.70
2017-05-27T02:17:09.379Z,10.60
2017-05-27T02:19:36.558Z,10.60
2017-05-27T02:22:04.774Z,10.60
2017-05-27T02:24:32.287Z,10.50
2017-05-27T02:26:59.451Z,10.50
2017-05-27T02:29:26.603Z,10.40
2017-05-27T02:31:53.813Z,10.40
2017-05-27T02:34:21.569Z,10.30
2017-05-27T02:36:48.753Z,10.30
2017-05-27T02:39:15.934Z,10.20
2017-05-27T02:41:43.098Z,10.20
2017-05-27T02:44:10.262Z,10.20
2017-05-27T02:46:37.457Z,10.10
2017-05-27T02:49:04.678Z,10.10
2017-05-27T02:51:31.867Z,10.10
2017-05-27T02:53:59.427Z,10.10
2017-05-27T02:56:26.596Z,10.10
2017-05-27T02:58:53.794Z,10.10
2017-05-27T03:01:20.944Z,10.00
2017-05-27T03:03:48.116Z,10.10
2017-05-27T03:06:15.273Z,10.00
2017-05-27T03:08:42.485Z,10.10
2017-05-27T03:11:09.651Z,10.00
2017-05-27T03:13:36.878Z,10.00
2017-05-27T03:16:04.055Z,10.10
2017-05-27T03:18:31.329Z,10.10
2017-05-27T03:20:58.512Z,10.10
2017-05-27T03:23:25.775Z,10.10
2017-05-27T03:25:52.956Z,10.10
2017-05-27T03:28:20.108Z,10.10
2017-05-27T03:30:47.257Z,10.10
2017-05-27T03:33:14.429Z,10.10
2017-05-27T03:35:41.621Z,10.10
2017-05-27T03:38:08.785Z,10.20
2017-05-27T03:40:35.953Z,10.20
2017-05-27T03:43:03.146Z,10.20
2017-05-27T03:45:30.657Z,10.20
2017-05-27T03:47:57.893Z,10.20
2017-05-27T03:50:25.081Z,10.30
2017-05-27T03:52:52.234Z,10.30
2017-05-27T03:55:19.422Z,10.40
2017-05-27T03:57:46.607Z,10.60
2017-05-27T04:00:13.769Z,10.70
2017-05-27T04:02:41.042Z,10.90
2017-05-27T04:05:08.227Z,11.40
2017-05-27T04:07:35.483Z,12.30
2017-05-27T04:10:02.858Z,13.40
2017-05-27T04:12:30.137Z,14.50
2017-05-27T04:14:57.710Z,15.70
2017-05-27T04:17:24.873Z,16.80
2017-05-27T04:19:52.095Z,17.80
2017-05-27T04:22:19.323Z,18.70
2017-05-27T04:24:46.610Z,19.50
2017-05-27T04:27:13.791Z,20.30
2017-05-27T04:29:40.961Z,21.00
2017-05-27T04:32:08.134Z,21.70
2017-05-27T04:34:35.353Z,22.30
2017-05-27T04:37:02.557Z,22.90
2017-05-27T04:39:29.767Z,23.50
2017-05-27T04:41:56.968Z,24.00
2017-05-27T04:44:24.182Z,24.50
2017-05-27T04:46:51.978Z,24.90
2017-05-27T04:49:19.180Z,25.40
2017-05-27T04:51:46.384Z,25.90
2017-05-27T04:54:13.649Z,26.30
2017-05-27T04:56:41.340Z,26.80
2017-05-27T04:59:08.926Z,27.40
2017-05-27T05:01:36.107Z,27.80
2017-05-27T05:04:03.866Z,28.30
2017-05-27T05:06:31.046Z,28.70
2017-05-27T05:08:58.265Z,29.20
2017-05-27T05:11:25.420Z,29.70
2017-05-27T05:13:52.708Z,30.20
2017-05-27T05:16:19.982Z,30.50
2017-05-27T05:18:47.185Z,30.80
2017-05-27T05:21:14.392Z,30.70
2017-05-27T05:23:42.573Z,30.50
2017-05-27T05:26:09.810Z,30.50
2017-05-27T05:28:37.110Z,30.60
2017-05-27T05:31:04.344Z,30.50
2017-05-27T05:33:31.570Z,30.30
2017-05-27T05:35:58.766Z,30.40
2017-05-27T05:38:25.993Z,30.40
2017-05-27T05:40:54.603Z,30.30
2017-05-27T05:43:21.799Z,30.40
2017-05-27T05:45:48.992Z,30.70
2017-05-27T05:48:16.627Z,31.50
2017-05-27T05:50:43.811Z,31.90
2017-05-27T05:53:11.037Z,32.10
2017-05-27T05:55:38.558Z,32.40
2017-05-27T05:58:06.084Z,32.80
2017-05-27T06:00:34.304Z,33.10
2017-05-27T06:03:01.567Z,33.60
2017-05-27T06:05:29.251Z,34.00
2017-05-27T06:07:56.471Z,34.50
2017-05-27T06:10:23.923Z,34.80
2017-05-27T06:12:51.108Z,34.80
2017-05-27T06:15:19.007Z,34.90
2017-05-27T06:17:46.338Z,35.10
2017-05-27T06:20:13.612Z,35.20
2017-05-27T06:22:40.789Z,35.20
2017-05-27T06:25:08.321Z,35.80
2017-05-27T06:27:35.785Z,36.20
2017-05-27T06:30:02.969Z,36.60
2017-05-27T06:32:30.187Z,37.00
2017-05-27T06:34:57.779Z,37.60
2017-05-27T06:37:25.006Z,38.00
2017-05-27T06:39:52.177Z,38.40
2017-05-27T06:42:19.596Z,38.90
2017-05-27T06:44:46.862Z,39.20
2017-05-27T06:47:14.561Z,39.30
2017-05-27T06:49:42.082Z,39.40
2017-05-27T06:52:10.080Z,40.00
2017-05-27T06:54:37.751Z,40.50
2017-05-27T06:57:04.963Z,40.90
2017-05-27T06:59:32.386Z,41.50
2017-05-27T07:01:59.671Z,42.40
2017-05-27T07:04:27.006Z,43.00
2017-05-27T07:06:54.236Z,43.70
2017-05-27T07:09:21.553Z,44.20
2017-05-27T07:11:48.737Z,44.60
2017-05-27T07:14:16.237Z,44.70
2017-05-27T07:16:43.579Z,44.90
2017-05-27T07:19:11.193Z,45.10
2017-05-27T07:21:38.434Z,45.50
2017-05-27T07:24:05.766Z,45.70
2017-05-27T07:26:33.032Z,45.70
2017-05-27T07:29:00.234Z,45.80
2017-05-27T07:31:27.779Z,45.80
2017-05-27T07:33:55.035Z,45.30
2017-05-27T07:36:22.199Z,44.80
2017-05-27T07:38:49.380Z,44.30
2017-05-27T07:41:16.826Z,43.90
2017-05-27T07:43:44.290Z,43.90
2017-05-27T07:46:11.627Z,43.90
2017-05-27T07:48:38.797Z,44.00
2017-05-27T07:51:06.261Z,44.10
2017-05-27T07:53:33.855Z,44.00
2017-05-27T07:56:01.399Z,43.90
2017-05-27T07:58:28.776Z,43.70
2017-05-27T08:00:56.018Z,43.00
2017-05-27T08:03:23.325Z,42.00
2017-05-27T08:05:51.525Z,41.10
2017-05-27T08:08:19.455Z,40.20
2017-05-27T08:10:47.092Z,39.70
2017-05-27T08:13:14.300Z,39.30
2017-05-27T08:15:41.538Z,38.60
2017-05-27T08:18:08.913Z,37.50
2017-05-27T08:20:36.132Z,36.30
2017-05-27T08:23:03.595Z,34.70
2017-05-27T08:25:30.771Z,32.80
2017-05-27T08:27:58.300Z,31.30
2017-05-27T08:30:25.501Z,30.20
2017-05-27T08:32:58.761Z,29.50
2017-05-27T08:35:25.956Z,28.80
2017-05-27T08:37:53.181Z,28.40
2017-05-27T08:40:20.833Z,28.10
2017-05-27T08:42:48.338Z,27.70
2017-05-27T08:45:15.580Z,27.20
2017-05-27T08:47:42.867Z,26.70
2017-05-27T08:50:10.054Z,26.30
2017-05-27T08:52:37.533Z,26.00
2017-05-27T08:55:05.086Z,25.70
2017-05-27T08:57:32.308Z,25.50
2017-05-27T08:59:59.637Z,25.40
2017-05-27T09:02:26.866Z,25.20
2017-05-27T09:04:54.183Z,25.10
2017-05-27T09:07:21.539Z,24.90
2017-05-27T09:09:49.266Z,24.70
2017-05-27T09:12:16.559Z,24.70
2017-05-27T09:14:44.338Z,24.60
2017-05-27T09:17:11.651Z,24.60
2017-05-27T09:19:39.087Z,24.50
2017-05-27T09:22:06.465Z,24.40
2017-05-27T09:24:33.763Z,24.20
2017-05-27T09:27:01.013Z,24.20
2017-05-27T09:29:28.201Z,24.10
2017-05-27T09:31:55.385Z,24.10
2017-05-27T09:34:22.593Z,24.00
2017-05-27T09:36:50.116Z,24.10
2017-05-27T09:39:17.867Z,24.10
2017-05-27T09:41:45.160Z,24.10
2017-05-27T09:44:12.663Z,24.10
2017-05-27T09:46:40.073Z,24.10
2017-05-27T09:49:07.280Z,24.00
2017-05-27T09:51:34.761Z,24.00
2017-05-27T09:54:02.666Z,24.10
2017-05-27T09:56:29.857Z,24.10
2017-05-27T09:58:57.285Z,24.30
2017-05-27T10:01:24.489Z,24.40
2017-05-27T10:03:51.756Z,24.40
2017-05-27T10:06:19.005Z,24.40
2017-05-27T10:08:46.742Z,24.50
2017-05-27T10:11:14.065Z,24.50
2017-05-27T10:13:41.227Z,24.50
2017-05-27T10:16:08.463Z,24.40
2017-05-27T10:18:35.785Z,24.40
2017-05-27T10:21:03.060Z,24.40
2017-05-27T10:23:30.273Z,24.40
2017-05-27T10:25:57.505Z,24.40
2017-05-27T10:28:24.731Z,24.50
2017-05-27T10:30:52.000Z,24.50
2017-05-27T10:33:19.330Z,24.50
2017-05-27T10:35:46.561Z,24.60
2017-05-27T10:38:13.737Z,24.60
2017-05-27T10:40:40.940Z,24.50
2017-05-27T10:43:08.130Z,24.50
2017-05-27T10:45:35.370Z,24.60
2017-05-27T10:48:02.561Z,24.60
2017-05-27T10:50:29.803Z,24.60
2017-05-27T10:52:57.287Z,24.80
2017-05-27T10:55:24.479Z,24.90
2017-05-27T10:57:51.671Z,24.80
2017-05-27T11:00:18.839Z,24.80
2017-05-27T11:02:46.460Z,24.90
2017-05-27T11:05:13.790Z,25.10
2017-05-27T11:07:41.236Z,25.10
2017-05-27T11:10:08.782Z,25.00
2017-05-27T11:12:36.124Z,25.00
2017-05-27T11:15:03.325Z,24.90
2017-05-27T11:17:30.674Z,24.70
2017-05-27T11:19:57.947Z,24.60
2017-05-27T11:22:25.155Z,24.60
2017-05-27T11:24:52.370Z,24.80
2017-05-27T11:27:19.669Z,24.90
2017-05-27T11:29:46.872Z,24.90
2017-05-27T11:32:14.215Z,24.90
2017-05-27T11:34:41.395Z,24.80
2017-05-27T11:37:08.738Z,24.90
2017-05-27T11:39:36.037Z,25.00
2017-05-27T11:42:03.259Z,25.00
2017-05-27T11:44:30.451Z,25.00
2017-05-27T11:46:57.681Z,25.10
2017-05-27T11:49:25.007Z,25.20
2017-05-27T11:51:52.247Z,25.30
2017-05-27T11:54:19.415Z,25.30
2017-05-27T11:56:46.625Z,25.40
2017-05-27T11:59:13.827Z,25.50
2017-05-27T12:01:41.037Z,25.40
2017-05-27T12:04:08.298Z,25.40
2017-05-27T12:06:35.645Z,25.20
2017-05-27T12:09:03.127Z,25.20
2017-05-27T12:11:30.381Z,25.30
2017-05-27T12:13:57.773Z,25.30
2017-05-27T12:16:25.047Z,25.50
2017-05-27T12:18:52.527Z,25.50
2017-05-27T12:21:20.823Z,25.60
2017-05-27T12:23:48.465Z,25.80
2017-05-27T12:26:15.786Z,25.90
2017-05-27T12:28:43.034Z,25.90
2017-05-27T12:31:10.222Z,26.00
2017-05-27T12:33:37.442Z,26.00
2017-05-27T12:36:04.907Z,26.00
2017-05-27T12:38:32.306Z,26.00
2017-05-27T12:40:59.510Z,25.80
2017-05-27T12:43:26.665Z,25.80
2017-05-27T12:45:53.974Z,25.80
2017-05-27T12:48:21.245Z,25.90
2017-05-27T12:50:48.771Z,25.80
2017-05-27T12:53:16.112Z,25.80
2017-05-27T12:55:43.376Z,25.80
2017-05-27T12:58:10.745Z,25.80
2017-05-27T13:00:37.924Z,25.80
2017-05-27T13:03:05.138Z,25.90
2017-05-27T13:05:32.379Z,25.90
2017-05-27T13:07:59.849Z,26.00
2017-05-27T13:10:27.055Z,26.00
2017-05-27T13:12:54.506Z,25.90
2017-05-27T13:15:21.747Z,25.90
2017-05-27T13:17:49.047Z,25.80
2017-05-27T13:20:16.358Z,25.80
2017-05-27T13:22:43.724Z,25.80
2017-05-27T13:25:11.556Z,25.90
2017-05-27T13:27:38.745Z,25.90
2017-05-27T13:30:05.904Z,25.90
2017-05-27T13:32:33.081Z,25.80
2017-05-27T13:35:00.321Z,25.80
2017-05-27T13:37:27.889Z,25.70
2017-05-27T13:39:55.375Z,25.80
2017-05-27T13:42:22.554Z,25.80
2017-05-27T13:44:49.780Z,25.90
2017-05-27T13:47:16.959Z,25.90
2017-05-27T13:49:44.479Z,26.00
2017-05-27T13:52:11.707Z,26.10
2017-05-27T13:54:39.063Z,26.30
2017-05-27T13:57:06.593Z,26.30
2017-05-27T13:59:34.076Z,26.30
2017-05-27T14:02:01.491Z,26.20
2017-05-27T14:04:28.685Z,26.30
2017-05-27T14:06:55.879Z,26.30
2017-05-27T14:09:23.343Z,26.30
2017-05-27T14:11:51.123Z,26.30
2017-05-27T14:14:18.639Z,26.20
2017-05-27T14:16:45.983Z,26.10
2017-05-27T14:19:13.253Z,26.10
2017-05-27T14:21:40.719Z,26.00
2017-05-27T14:24:08.171Z,26.10
2017-05-27T14:26:35.345Z,26.00
2017-05-27T14:29:03.111Z,26.00
2017-05-27T14:31:30.310Z,25.90
2017-05-27T14:33:57.508Z,26.00
2017-05-27T14:36:24.749Z,26.00
2017-05-27T14:38:51.936Z,26.10
2017-05-27T14:41:19.110Z,26.10
2017-05-27T14:43:46.285Z,26.00
2017-05-27T14:46:13.818Z,26.00
2017-05-27T14:48:41.375Z,26.00
2017-05-27T14:51:08.645Z,26.10
2017-05-27T14:53:50.745Z,26.10
2017-05-27T14:56:17.928Z,26.00
2017-05-27T14:58:45.105Z,26.00
2017-05-27T15:01:12.366Z,26.00
2017-05-27T15:03:39.529Z,26.00
2017-05-27T15:06:06.735Z,25.90
2017-05-27T15:08:33.939Z,25.90
2017-05-27T15:11:01.176Z,25.90
2017-05-27T15:13:28.604Z,26.00
2017-05-27T15:15:55.775Z,26.10
2017-05-27T15:18:23.101Z,26.20
2017-05-27T15:20:50.501Z,26.10
2017-05-27T15:23:17.713Z,26.10
2017-05-27T15:25:44.881Z,26.10
2017-05-27T15:28:12.487Z,26.00
2017-05-27T15:30:40.309Z,26.00
2017-05-27T15:33:07.525Z,26.00
2017-05-27T15:35:34.708Z,25.90
2017-05-27T15:38:02.199Z,25.90
2017-05-27T15:40:29.470Z,25.90
2017-05-27T15:42:56.662Z,25.80
2017-05-27T15:45:24.254Z,25.80
2017-05-27T15:47:51.499Z,25.80
2017-05-27T15:50:18.782Z,25.80
2017-05-27T15:52:45.958Z,25.80
2017-05-27T15:55:13.183Z,25.80
2017-05-27T15:57:40.361Z,25.80
2017-05-27T16:00:07.575Z,25.80
2017-05-27T16:02:34.837Z,25.80
2017-05-27T16:05:02.111Z,25.70
2017-05-27T16:07:29.327Z,25.70
2017-05-27T16:09:56.699Z,25.70
2017-05-27T16:12:23.949Z,25.70
2017-05-27T16:14:51.118Z,25.70
2017-05-27T16:17:18.295Z,25.70
2017-05-27T16:19:45.682Z,25.70
2017-05-27T16:22:12.881Z,25.60
2017-05-27T16:24:40.349Z,25.60
2017-05-27T16:27:07.685Z,25.50
2017-05-27T16:29:34.909Z,25.40
2017-05-27T16:32:02.105Z,25.40
2017-05-27T16:34:29.295Z,25.30
2017-05-27T16:36:56.805Z,25.20
2017-05-27T16:39:24.309Z,25.10
2017-05-27T16:41:51.633Z,25.10
2017-05-27T16:44:18.816Z,24.90
2017-05-27T16:46:46.254Z,24.90
2017-05-27T16:49:13.591Z,24.80
2017-05-27T16:51:40.922Z,24.70
2017-05-27T16:54:08.167Z,24.60
2017-05-27T16:56:35.428Z,24.50
2017-05-27T16:59:02.862Z,24.40
2017-05-27T17:01:30.051Z,24.40
2017-05-27T17:03:57.472Z,24.30
2017-05-27T17:06:24.712Z,24.30
2017-05-27T17:08:51.907Z,24.30
2017-05-27T17:11:19.436Z,24.30
2017-05-27T17:13:46.632Z,24.30
2017-05-27T17:16:14.006Z,24.20
2017-05-27T17:18:41.244Z,24.10
2017-05-27T17:21:08.839Z,24.00
2017-05-27T17:23:36.707Z,23.90
2017-05-27T17:26:04.248Z,23.80
2017-05-27T17:28:31.712Z,23.80
2017-05-27T17:30:58.906Z,23.70
2017-05-27T17:33:27.058Z,23.60
2017-05-27T17:35:54.327Z,23.50
2017-05-27T17:38:22.091Z,23.40
2017-05-27T17:40:49.254Z,23.40
2017-05-27T17:43:16.461Z,23.20
2017-05-27T17:45:43.633Z,23.10
2017-05-27T17:48:10.981Z,23.00
2017-05-27T17:50:38.637Z,23.00
2017-05-27T17:53:05.802Z,22.90
2017-05-27T17:55:32.971Z,22.80
2017-05-27T17:58:00.127Z,22.70
2017-05-27T18:00:27.319Z,22.50
2017-05-27T18:02:54.550Z,22.40
2017-05-27T18:05:22.792Z,22.30
2017-05-27T18:07:49.960Z,22.20
2017-05-27T18:10:17.137Z,22.10
2017-05-27T18:12:44.768Z,22.00
2017-05-27T18:15:11.956Z,21.90
2017-05-27T18:17:39.121Z,21.80
2017-05-27T18:20:06.405Z,21.70
2017-05-27T18:22:33.640Z,21.60
2017-05-27T18:25:01.457Z,21.50
2017-05-27T18:27:28.658Z,21.40
2017-05-27T18:29:56.918Z,21.30
2017-05-27T18:32:24.134Z,21.10
2017-05-27T18:34:51.568Z,21.10
2017-05-27T18:37:18.739Z,20.90
2017-05-27T18:39:46.326Z,20.80
2017-05-27T18:42:13.831Z,20.80
2017-05-27T18:44:41.607Z,20.70
2017-05-27T18:47:08.811Z,20.50
2017-05-27T18:49:36.020Z,20.40
2017-05-27T18:52:03.541Z,20.40
2017-05-27T18:54:30.783Z,20.30
2017-05-27T18:56:58.060Z,20.10
2017-05-27T18:59:25.333Z,20.00
2017-05-27T19:01:52.538Z,19.90
2017-05-27T19:04:19.782Z,19.80
2017-05-27T19:06:46.955Z,19.70
2017-05-27T19:09:14.230Z,19.60
2017-05-27T19:11:41.474Z,19.60
2017-05-27T19:14:08.676Z,19.50
2017-05-27T19:16:35.824Z,19.40
2017-05-27T19:19:03.030Z,19.30
2017-05-27T19:21:30.224Z,19.30
2017-05-27T19:23:57.425Z,19.20
2017-05-27T19:26:24.779Z,19.20
2017-05-27T19:28:52.038Z,19.10
2017-05-27T19:31:19.202Z,19.10
2017-05-27T19:33:46.413Z,19.00
2017-05-27T19:36:13.629Z,19.00
2017-05-27T19:38:40.798Z,19.00
2017-05-27T19:41:08.255Z,18.90
2017-05-27T19:43:35.646Z,18.90
2017-05-27T19:46:02.853Z,18.90
2017-05-27T19:48:30.209Z,18.90
2017-05-27T19:50:57.453Z,18.80
2017-05-27T19:53:24.757Z,18.80
2017-05-27T19:55:52.031Z,18.70
2017-05-27T19:58:19.266Z,18.70
2017-05-27T20:00:46.498Z,18.70
2017-05-27T20:03:14.759Z,18.60
2017-05-27T20:05:41.966Z,18.60
2017-05-27T20:08:09.166Z,18.50
2017-05-27T20:10:36.347Z,18.50
2017-05-27T20:13:03.563Z,18.40
2017-05-27T20:15:30.826Z,18.40
2017-05-27T20:17:58.231Z,18.40
2017-05-27T20:20:25.778Z,18.30
2017-05-27T20:22:52.950Z,18.30
2017-05-27T20:25:20.712Z,18.20
2017-05-27T20:30:42.193Z,18.10
2017-05-27T20:33:09.406Z,18.10
2017-05-27T20:35:37.052Z,18.00
2017-05-27T20:38:05.179Z,17.90
2017-05-27T20:40:32.521Z,17.90
2017-05-27T20:43:01.735Z,17.80
2017-05-27T20:45:28.970Z,17.70
2017-05-27T20:47:56.290Z,17.70
2017-05-27T20:50:23.565Z,17.50
2017-05-27T20:52:50.926Z,17.40
2017-05-27T20:55:18.483Z,17.30
2017-05-27T20:57:45.796Z,17.10
2017-05-27T21:00:13.170Z,17.10
2017-05-27T21:02:40.853Z,17.00
2017-05-27T21:05:08.058Z,16.90
2017-05-27T21:07:35.402Z,16.90
2017-05-27T21:10:02.779Z,16.80
2017-05-27T21:12:30.073Z,16.70
2017-05-27T21:14:57.839Z,16.60
2017-05-27T21:17:25.059Z,16.60
2017-05-27T21:19:52.264Z,16.50
2017-05-27T21:22:19.499Z,16.40
2017-05-27T21:24:46.730Z,16.40
2017-05-27T21:27:13.961Z,16.30
2017-05-27T21:29:41.156Z,16.30
2017-05-27T21:32:08.553Z,16.40
2017-05-27T21:34:35.817Z,16.50
2017-05-27T21:37:03.106Z,16.70
2017-05-27T21:39:30.377Z,16.80
2017-05-27T21:41:57.885Z,16.90
2017-05-27T21:44:25.069Z,17.00
2017-05-27T21:46:52.421Z,17.10
2017-05-27T21:49:19.621Z,17.10
2017-05-27T21:51:47.089Z,17.00
2017-05-27T21:54:14.310Z,16.90
2017-05-27T21:56:41.602Z,16.80
2017-05-27T21:59:08.839Z,16.70
2017-05-27T22:01:36.140Z,16.70
2017-05-27T22:04:03.668Z,16.60
2017-05-27T22:06:30.880Z,16.50
2017-05-27T22:08:58.179Z,16.50
2017-05-27T22:11:25.393Z,16.40
2017-05-27T22:13:52.808Z,16.30
2017-05-27T22:16:20.003Z,16.20
2017-05-27T22:18:47.230Z,16.20
2017-05-27T22:21:14.631Z,16.10
2017-05-27T22:26:20.915Z,15.90
2017-05-27T22:28:48.103Z,15.80
2017-05-27T22:31:15.328Z,15.70
2017-05-27T22:33:42.684Z,15.60
2017-05-27T22:36:09.864Z,15.60
2017-05-27T22:38:37.056Z,15.50
2017-05-27T22:41:04.249Z,15.50
2017-05-27T22:43:31.413Z,15.40
2017-05-27T22:45:58.593Z,15.40
2017-05-27T22:48:25.778Z,15.30
2017-05-27T22:50:53.092Z,15.30
2017-05-27T22:53:20.274Z,15.30
2017-05-27T22:55:47.446Z,15.20
2017-05-27T22:58:14.638Z,15.20
2017-05-27T23:00:41.819Z,15.10
2017-05-27T23:03:09.000Z,15.10
2017-05-27T23:05:36.183Z,15.00
2017-05-27T23:08:03.334Z,15.00
2017-05-27T23:10:30.570Z,14.90
2017-05-27T23:12:57.844Z,14.80
2017-05-27T23:15:25.068Z,14.80
2017-05-27T23:17:52.276Z,14.80
2017-05-27T23:20:19.428Z,14.70
2017-05-27T23:22:46.609Z,14.60
2017-05-27T23:25:13.796Z,14.60
2017-05-27T23:27:40.982Z,14.60
2017-05-27T23:30:08.190Z,14.50
2017-05-27T23:32:35.345Z,14.50
2017-05-27T23:35:02.512Z,14.50
2017-05-27T23:37:30.202Z,14.40
2017-05-27T23:39:57.361Z,14.40
2017-05-27T23:42:24.624Z,14.30
2017-05-27T23:44:51.794Z,14.30
2017-05-27T23:47:18.993Z,14.30
2017-05-27T23:49:46.233Z,14.40
2017-05-27T23:52:13.515Z,14.40
2017-05-27T23:54:40.736Z,14.40
2017-05-27T23:57:07.926Z,14.40
2017-05-27T23:59:35.095Z,14.40
